createdAt,value
2023-04-16T00:01:02.672Z,9.17
2023-04-16T00:04:06.153Z,9.16
2023-04-16T00:07:09.376Z,8.97
2023-04-16T00:10:12.273Z,8.84
2023-04-16T00:13:15.275Z,8.76
2023-04-16T00:16:18.546Z,8.75
2023-04-16T00:19:22.457Z,8.63
2023-04-16T00:22:25.046Z,8.64
2023-04-16T00:25:27.823Z,8.79
2023-04-16T00:28:30.637Z,8.79
2023-04-16T00:31:34.484Z,8.72
2023-04-16T00:34:39.076Z,8.79
2023-04-16T00:37:41.765Z,8.80
2023-04-16T00:40:45.727Z,8.86
2023-04-16T00:43:48.205Z,8.85
2023-04-16T00:46:51.664Z,8.75
2023-04-16T00:49:54.657Z,8.68
2023-04-16T00:52:57.550Z,8.52
2023-04-16T00:56:02.518Z,8.49
2023-04-16T00:59:06.256Z,8.31
2023-04-16T01:02:09.107Z,8.33
2023-04-16T01:05:11.833Z,8.46
2023-04-16T01:08:22.097Z,8.57
2023-04-16T01:11:25.004Z,8.54
2023-04-16T01:14:27.983Z,8.59
2023-04-16T01:17:30.545Z,8.65
2023-04-16T01:20:36.379Z,8.67
2023-04-16T01:23:39.304Z,8.73
2023-04-16T01:26:42.060Z,8.62
2023-04-16T01:29:44.845Z,8.41
2023-04-16T01:32:48.257Z,8.41
2023-04-16T01:35:51.254Z,8.23
2023-04-16T01:38:54.058Z,8.29
2023-04-16T01:41:57.224Z,8.27
2023-04-16T01:44:59.825Z,8.23
2023-04-16T01:48:03.961Z,8.20
2023-04-16T01:51:06.862Z,8.18
2023-04-16T01:54:09.829Z,8.21
2023-04-16T01:57:12.456Z,8.15
2023-04-16T02:00:15.554Z,8.05
2023-04-16T02:03:24.932Z,8.02
2023-04-16T02:06:28.647Z,8.07
2023-04-16T02:09:35.497Z,7.95
2023-04-16T02:12:40.820Z,7.92
2023-04-16T02:15:47.970Z,8.04
2023-04-16T02:18:53.307Z,8.07
2023-04-16T02:21:58.495Z,8.00
2023-04-16T02:25:01.207Z,7.91
2023-04-16T02:28:03.821Z,7.93
2023-04-16T02:31:11.544Z,7.85
2023-04-16T02:34:19.243Z,7.85
2023-04-16T02:37:21.862Z,7.81
2023-04-16T02:40:24.663Z,7.80
2023-04-16T02:43:27.166Z,7.81
2023-04-16T02:46:31.724Z,7.84
2023-04-16T02:49:35.881Z,7.81
2023-04-16T02:52:38.504Z,7.77
2023-04-16T02:55:41.386Z,7.70
2023-04-16T02:58:43.907Z,7.75
2023-04-16T03:01:46.889Z,7.81
2023-04-16T03:04:50.038Z,7.65
2023-04-16T03:07:56.709Z,7.68
2023-04-16T03:11:01.675Z,7.62
2023-04-16T03:14:04.487Z,7.57
2023-04-16T03:17:07.224Z,7.65
2023-04-16T03:20:10.371Z,7.53
2023-04-16T03:23:14.176Z,7.50
2023-04-16T03:26:16.905Z,7.47
2023-04-16T03:29:19.595Z,7.45
2023-04-16T03:32:23.596Z,7.52
2023-04-16T03:35:26.247Z,7.57
2023-04-16T03:38:28.858Z,7.64
2023-04-16T03:41:33.653Z,7.75
2023-04-16T03:44:36.682Z,7.74
2023-04-16T03:47:39.301Z,7.79
2023-04-16T03:50:46.238Z,7.82
2023-04-16T03:53:51.105Z,7.93
2023-04-16T03:56:54.548Z,7.94
2023-04-16T03:59:57.094Z,8.00
2023-04-16T04:03:02.664Z,7.97
2023-04-16T04:06:09.429Z,7.95
2023-04-16T04:09:13.043Z,7.99
2023-04-16T04:12:16.008Z,8.09
2023-04-16T04:15:19.750Z,8.07
2023-04-16T04:18:23.093Z,7.98
2023-04-16T04:21:26.010Z,8.14
2023-04-16T04:24:28.797Z,8.22
2023-04-16T04:27:31.758Z,8.35
2023-04-16T04:30:35.916Z,8.34
2023-04-16T04:33:38.533Z,8.36
2023-04-16T04:36:42.256Z,8.39
2023-04-16T04:39:45.310Z,8.33
2023-04-16T04:42:49.295Z,8.31
2023-04-16T04:45:52.094Z,8.23
2023-04-16T04:48:54.959Z,8.18
2023-04-16T04:51:57.752Z,8.24
2023-04-16T04:55:00.774Z,8.24
2023-04-16T04:58:06.455Z,8.38
2023-04-16T05:01:09.397Z,8.57
2023-04-16T05:04:13.116Z,8.81
2023-04-16T05:07:16.354Z,8.88
2023-04-16T05:10:19.360Z,9.02
2023-04-16T05:13:22.193Z,9.13
2023-04-16T05:16:24.826Z,9.13
2023-04-16T05:19:27.685Z,8.96
2023-04-16T05:22:30.221Z,8.81
2023-04-16T05:25:32.891Z,8.87
2023-04-16T05:28:35.677Z,8.93
2023-04-16T05:31:39.634Z,9.02
2023-04-16T05:34:42.197Z,9.00
2023-04-16T05:37:44.673Z,9.20
2023-04-16T05:40:47.396Z,9.39
2023-04-16T05:43:50.067Z,9.37
2023-04-16T05:46:52.919Z,9.41
2023-04-16T05:49:55.810Z,9.42
2023-04-16T05:52:58.561Z,9.49
2023-04-16T05:56:01.097Z,9.55
2023-04-16T05:59:04.599Z,9.57
2023-04-16T06:02:07.559Z,9.68
2023-04-16T06:05:10.152Z,9.65
2023-04-16T06:08:12.873Z,9.70
2023-04-16T06:11:15.510Z,9.78
2023-04-16T06:14:18.203Z,10.01
2023-04-16T06:17:21.395Z,10.12
2023-04-16T06:20:24.470Z,10.15
2023-04-16T06:23:27.070Z,10.44
2023-04-16T06:26:29.728Z,10.79
2023-04-16T06:29:40.642Z,11.02
2023-04-16T06:32:44.757Z,11.11
2023-04-16T06:35:47.423Z,11.16
2023-04-16T06:38:50.086Z,11.27
2023-04-16T06:41:52.882Z,11.13
2023-04-16T06:44:55.526Z,11.30
2023-04-16T06:48:04.334Z,11.46
2023-04-16T06:51:07.423Z,11.76
2023-04-16T06:54:10.510Z,11.77
2023-04-16T06:57:13.022Z,11.81
2023-04-16T07:00:15.949Z,12.03
2023-04-16T07:03:18.643Z,12.13
2023-04-16T07:06:21.399Z,12.19
2023-04-16T07:09:24.026Z,12.48
2023-04-16T07:12:27.287Z,12.61
2023-04-16T07:15:30.079Z,12.77
2023-04-16T07:18:33.101Z,12.89
2023-04-16T07:21:36.458Z,13.12
2023-04-16T07:24:39.525Z,13.12
2023-04-16T07:27:44.465Z,13.10
2023-04-16T07:30:47.511Z,13.22
2023-04-16T07:33:50.524Z,13.34
2023-04-16T07:36:53.146Z,13.37
2023-04-16T07:39:57.770Z,13.41
2023-04-16T07:43:00.539Z,13.61
2023-04-16T07:46:04.272Z,13.77
2023-04-16T07:49:07.236Z,13.69
2023-04-16T07:52:09.906Z,13.78
2023-04-16T07:55:13.707Z,13.76
2023-04-16T07:58:16.322Z,13.67
2023-04-16T08:01:18.958Z,13.98
2023-04-16T08:04:25.734Z,14.04
2023-04-16T08:07:28.818Z,14.36
2023-04-16T08:10:31.593Z,15.02
2023-04-16T08:13:34.212Z,15.38
2023-04-16T08:16:37.037Z,15.54
2023-04-16T08:19:40.051Z,15.74
2023-04-16T08:22:43.208Z,15.84
2023-04-16T08:25:46.095Z,16.00
2023-04-16T08:28:49.648Z,16.10
2023-04-16T08:31:53.811Z,16.15
2023-04-16T08:34:57.309Z,16.09
2023-04-16T08:38:02.410Z,16.09
2023-04-16T08:41:09.550Z,15.65
2023-04-16T08:44:20.510Z,15.87
2023-04-16T08:47:25.689Z,15.98
2023-04-16T08:50:29.924Z,16.02
2023-04-16T08:53:54.651Z,16.32
2023-04-16T08:56:59.150Z,16.64
2023-04-16T09:00:02.625Z,17.02
2023-04-16T09:03:06.928Z,17.25
2023-04-16T09:06:10.073Z,17.45
2023-04-16T09:09:14.004Z,17.25
2023-04-16T09:12:17.590Z,16.75
2023-04-16T09:15:22.162Z,16.37
2023-04-16T09:18:24.849Z,16.08
2023-04-16T09:21:28.108Z,15.90
2023-04-16T09:24:31.411Z,15.61
2023-04-16T09:27:34.104Z,15.45
2023-04-16T09:30:37.643Z,15.32
2023-04-16T09:33:41.186Z,15.20
2023-04-16T09:36:43.798Z,15.28
2023-04-16T09:39:56.866Z,15.23
2023-04-16T09:43:00.893Z,15.16
2023-04-16T09:46:08.108Z,15.19
2023-04-16T09:49:15.592Z,15.42
2023-04-16T09:52:23.192Z,15.96
2023-04-16T09:55:27.808Z,16.50
2023-04-16T09:58:30.869Z,17.24
2023-04-16T10:01:34.046Z,17.89
2023-04-16T10:04:53.093Z,18.62
2023-04-16T10:08:00.600Z,19.71
2023-04-16T10:11:03.285Z,20.69
2023-04-16T10:14:06.332Z,22.15
2023-04-16T10:17:10.047Z,24.05
2023-04-16T10:20:14.226Z,24.76
2023-04-16T10:23:20.124Z,24.37
2023-04-16T10:26:22.881Z,25.32
2023-04-16T10:29:27.488Z,26.12
2023-04-16T10:32:32.041Z,26.58
2023-04-16T10:35:40.734Z,27.39
2023-04-16T10:38:48.358Z,27.75
2023-04-16T10:42:06.332Z,28.31
2023-04-16T10:45:11.274Z,27.89
2023-04-16T10:48:17.178Z,27.70
2023-04-16T10:51:36.658Z,28.57
2023-04-16T10:54:40.938Z,27.98
2023-04-16T10:57:43.902Z,27.89
2023-04-16T11:00:53.474Z,28.49
2023-04-16T11:03:56.561Z,30.05
2023-04-16T11:07:17.990Z,32.41
2023-04-16T11:10:20.734Z,33.46
2023-04-16T11:13:23.864Z,33.66
2023-04-16T11:16:26.732Z,32.91
2023-04-16T11:19:29.518Z,31.96
2023-04-16T11:22:36.712Z,30.09
2023-04-16T11:25:39.396Z,27.87
2023-04-16T11:28:41.962Z,26.24
2023-04-16T11:31:55.378Z,24.62
2023-04-16T11:34:59.942Z,23.13
2023-04-16T11:38:02.603Z,22.61
2023-04-16T11:41:05.218Z,22.38
2023-04-16T11:44:25.531Z,21.89
2023-04-16T11:47:30.843Z,21.73
2023-04-16T11:50:33.804Z,21.18
2023-04-16T11:53:37.082Z,21.06
2023-04-16T11:56:46.834Z,21.24
2023-04-16T12:00:01.361Z,21.06
2023-04-16T12:03:15.628Z,21.01
2023-04-16T12:06:18.488Z,21.01
2023-04-16T12:09:25.461Z,21.69
2023-04-16T12:12:31.456Z,23.01
2023-04-16T12:15:46.041Z,23.95
2023-04-16T12:19:01.283Z,24.82
2023-04-16T12:22:04.051Z,24.71
2023-04-16T12:25:17.753Z,24.08
2023-04-16T12:28:38.598Z,22.91
2023-04-16T12:31:41.601Z,22.74
2023-04-16T12:34:51.582Z,22.48
2023-04-16T12:37:54.047Z,21.83
2023-04-16T12:40:57.749Z,21.35
2023-04-16T12:44:05.185Z,21.31
2023-04-16T12:47:07.855Z,21.63
2023-04-16T12:50:10.966Z,22.08
2023-04-16T12:53:13.919Z,23.27
2023-04-16T12:56:16.860Z,24.63
2023-04-16T12:59:19.504Z,27.42
2023-04-16T13:02:23.025Z,27.81
2023-04-16T13:05:25.835Z,27.35
2023-04-16T13:08:29.210Z,26.25
2023-04-16T13:11:32.481Z,25.99
2023-04-16T13:14:35.318Z,24.66
2023-04-16T13:17:38.270Z,23.38
2023-04-16T13:20:41.325Z,23.39
2023-04-16T13:23:44.108Z,22.88
2023-04-16T13:26:46.860Z,22.76
2023-04-16T13:29:50.000Z,22.38
2023-04-16T13:32:56.457Z,22.10
2023-04-16T13:35:59.170Z,21.88
2023-04-16T13:39:05.071Z,22.08
2023-04-16T13:42:09.205Z,22.67
2023-04-16T13:45:12.197Z,23.21
2023-04-16T13:48:15.184Z,24.66
2023-04-16T13:51:17.968Z,24.05
2023-04-16T13:54:20.593Z,23.76
2023-04-16T13:57:23.509Z,23.37
2023-04-16T14:00:27.334Z,22.81
2023-04-16T14:03:29.975Z,23.01
2023-04-16T14:06:33.801Z,23.35
2023-04-16T14:09:36.973Z,22.50
2023-04-16T14:12:40.159Z,21.81
2023-04-16T14:15:43.519Z,21.32
2023-04-16T14:18:47.777Z,20.74
2023-04-16T14:21:50.621Z,20.58
2023-04-16T14:24:55.602Z,20.51
2023-04-16T14:28:01.626Z,20.14
2023-04-16T14:31:04.993Z,20.09
2023-04-16T14:34:07.756Z,19.98
2023-04-16T14:37:10.365Z,19.63
2023-04-16T14:40:13.300Z,19.48
2023-04-16T14:43:16.115Z,19.64
2023-04-16T14:46:19.437Z,19.57
2023-04-16T14:49:22.959Z,19.59
2023-04-16T14:52:26.218Z,19.57
2023-04-16T14:55:28.769Z,19.63
2023-04-16T14:58:31.637Z,19.49
2023-04-16T15:01:36.028Z,19.63
2023-04-16T15:04:38.778Z,19.74
2023-04-16T15:07:41.936Z,19.82
2023-04-16T15:10:47.256Z,19.70
2023-04-16T15:13:50.778Z,19.55
2023-04-16T15:16:54.144Z,19.61
2023-04-16T15:19:56.901Z,19.69
2023-04-16T15:22:59.726Z,19.70
2023-04-16T15:26:02.416Z,19.70
2023-04-16T15:29:05.489Z,19.62
2023-04-16T15:32:08.752Z,19.57
2023-04-16T15:35:13.958Z,19.61
2023-04-16T15:38:16.988Z,19.74
2023-04-16T15:41:19.795Z,19.64
2023-04-16T15:44:24.531Z,19.69
2023-04-16T15:47:28.094Z,19.68
2023-04-16T15:50:32.716Z,19.46
2023-04-16T15:53:36.286Z,19.11
2023-04-16T15:56:40.023Z,18.76
2023-04-16T15:59:46.196Z,18.54
2023-04-16T16:02:58.142Z,18.30
2023-04-16T16:06:04.167Z,18.14
2023-04-16T16:09:08.520Z,17.91
2023-04-16T16:12:11.341Z,17.89
2023-04-16T16:15:15.745Z,17.97
2023-04-16T16:18:19.294Z,17.80
2023-04-16T16:21:22.591Z,17.69
2023-04-16T16:24:26.559Z,17.68
2023-04-16T16:27:30.004Z,17.69
2023-04-16T16:30:33.140Z,17.56
2023-04-16T16:33:38.428Z,17.58
2023-04-16T16:36:42.837Z,17.63
2023-04-16T16:39:46.118Z,17.66
2023-04-16T16:42:49.931Z,17.69
2023-04-16T16:45:53.278Z,17.66
2023-04-16T16:48:57.105Z,17.59
2023-04-16T16:52:00.517Z,17.54
2023-04-16T16:55:05.981Z,17.49
2023-04-16T16:58:10.305Z,17.43
2023-04-16T17:01:13.657Z,17.33
2023-04-16T17:04:20.012Z,17.22
2023-04-16T17:07:25.434Z,17.22
2023-04-16T17:10:30.281Z,17.20
2023-04-16T17:13:35.124Z,17.17
2023-04-16T17:16:39.619Z,17.01
2023-04-16T17:19:43.204Z,16.84
2023-04-16T17:22:46.548Z,16.90
2023-04-16T17:25:49.829Z,16.81
2023-04-16T17:28:54.681Z,16.72
2023-04-16T17:31:58.551Z,16.60
2023-04-16T17:35:04.614Z,16.48
2023-04-16T17:38:08.214Z,16.61
2023-04-16T17:41:12.119Z,16.63
2023-04-16T17:44:16.360Z,16.61
2023-04-16T17:47:20.510Z,16.51
2023-04-16T17:50:24.046Z,16.45
2023-04-16T17:53:27.518Z,16.38
2023-04-16T17:56:36.167Z,16.30
2023-04-16T17:59:39.466Z,16.28
2023-04-16T18:02:46.916Z,16.26
2023-04-16T18:05:50.319Z,16.15
2023-04-16T18:08:54.032Z,16.03
2023-04-16T18:11:57.576Z,16.12
2023-04-16T18:15:01.420Z,16.12
2023-04-16T18:18:06.643Z,16.12
2023-04-16T18:21:10.533Z,16.11
2023-04-16T18:24:14.297Z,16.00
2023-04-16T18:27:18.067Z,16.02
2023-04-16T18:30:26.371Z,15.98
2023-04-16T18:36:37.252Z,15.91
2023-04-16T18:39:40.086Z,15.83
2023-04-16T18:42:43.534Z,15.80
2023-04-16T18:45:46.812Z,15.70
2023-04-16T18:48:49.881Z,15.69
2023-04-16T18:51:56.584Z,15.63
2023-04-16T18:54:59.849Z,15.66
2023-04-16T18:58:04.047Z,15.69
2023-04-16T19:01:11.391Z,15.73
2023-04-16T19:04:18.505Z,15.74
2023-04-16T19:07:22.388Z,15.74
2023-04-16T19:10:26.295Z,15.68
2023-04-16T19:13:33.103Z,15.72
2023-04-16T19:16:36.554Z,15.69
2023-04-16T19:19:40.597Z,15.68
2023-04-16T19:22:44.339Z,15.57
2023-04-16T19:25:54.099Z,15.50
2023-04-16T19:28:57.908Z,15.48
2023-04-16T19:32:03.114Z,15.57
2023-04-16T19:35:08.398Z,15.43
2023-04-16T19:38:11.833Z,15.40
2023-04-16T19:41:15.434Z,15.32
2023-04-16T19:44:20.046Z,15.26
2023-04-16T19:47:23.655Z,15.26
2023-04-16T19:50:27.212Z,15.15
2023-04-16T19:53:35.000Z,15.20
2023-04-16T19:56:37.957Z,15.20
2023-04-16T19:59:42.832Z,15.14
2023-04-16T20:02:46.472Z,15.18
2023-04-16T20:05:50.241Z,15.21
2023-04-16T20:08:53.658Z,15.22
2023-04-16T20:11:58.316Z,15.20
2023-04-16T20:15:01.576Z,15.21
2023-04-16T20:18:06.501Z,15.26
2023-04-16T20:21:10.664Z,15.19
2023-04-16T20:24:15.991Z,15.05
2023-04-16T20:27:20.472Z,15.05
2023-04-16T20:30:28.791Z,15.08
2023-04-16T20:33:32.169Z,15.11
2023-04-16T20:36:36.265Z,15.11
2023-04-16T20:39:40.241Z,15.12
2023-04-16T20:42:46.311Z,15.18
2023-04-16T20:45:50.153Z,15.24
2023-04-16T20:48:53.258Z,15.24
2023-04-16T20:51:56.321Z,15.16
2023-04-16T20:54:59.021Z,15.09
2023-04-16T20:58:02.046Z,15.05
2023-04-16T21:01:06.139Z,15.07
2023-04-16T21:04:09.014Z,15.08
2023-04-16T21:07:11.789Z,15.13
2023-04-16T21:10:20.252Z,15.05
2023-04-16T21:13:23.164Z,15.10
2023-04-16T21:16:26.847Z,15.10
2023-04-16T21:19:29.633Z,15.10
2023-04-16T21:22:32.751Z,15.12
2023-04-16T21:25:35.534Z,15.03
2023-04-16T21:28:38.341Z,15.03
2023-04-16T21:31:42.900Z,15.09
2023-04-16T21:34:45.739Z,15.01
2023-04-16T21:37:48.875Z,14.97
2023-04-16T21:40:54.109Z,14.88
2023-04-16T21:43:56.671Z,14.83
2023-04-16T21:47:00.666Z,14.71
2023-04-16T21:50:03.764Z,14.54
2023-04-16T21:53:06.738Z,14.46
2023-04-16T21:56:09.540Z,14.49
2023-04-16T21:59:12.344Z,14.44
2023-04-16T22:02:15.217Z,14.33
2023-04-16T22:05:18.082Z,14.28
2023-04-16T22:08:24.889Z,14.19
2023-04-16T22:11:27.872Z,14.24
2023-04-16T22:14:31.982Z,14.20
2023-04-16T22:17:34.914Z,14.14
2023-04-16T22:20:39.221Z,14.11
2023-04-16T22:23:42.081Z,14.12
2023-04-16T22:26:44.714Z,14.21
2023-04-16T22:29:47.416Z,14.15
2023-04-16T22:32:50.304Z,14.15
2023-04-16T22:35:53.741Z,14.20
2023-04-16T22:38:56.538Z,14.15
2023-04-16T22:41:59.649Z,14.10
2023-04-16T22:45:02.615Z,14.07
2023-04-16T22:48:05.669Z,13.98
2023-04-16T22:51:10.715Z,13.95
2023-04-16T22:54:14.693Z,13.99
2023-04-16T22:57:21.140Z,14.05
2023-04-16T23:00:25.096Z,14.20
2023-04-16T23:03:28.335Z,14.13
2023-04-16T23:06:31.644Z,14.07
2023-04-16T23:09:34.458Z,14.11
2023-04-16T23:12:40.254Z,14.14
2023-04-16T23:15:43.852Z,14.11
2023-04-16T23:18:46.773Z,14.15
2023-04-16T23:21:49.364Z,14.14
2023-04-16T23:24:52.052Z,14.12
2023-04-16T23:27:54.727Z,14.19
2023-04-16T23:30:57.546Z,14.18
2023-04-16T23:34:00.183Z,14.14
2023-04-16T23:37:02.895Z,14.05
2023-04-16T23:40:06.708Z,14.09
2023-04-16T23:43:09.383Z,14.07
2023-04-16T23:46:12.990Z,14.09
2023-04-16T23:49:15.655Z,13.98
2023-04-16T23:52:18.424Z,14.05
2023-04-16T23:55:21.126Z,14.11
2023-04-16T23:58:24.358Z,13.96
